createdAt,value
2017-11-05T00:01:28.700Z,17.50
2017-11-05T00:03:56.565Z,17.70
2017-11-05T00:06:24.454Z,17.60
2017-11-05T00:08:52.427Z,17.40
2017-11-05T00:11:20.150Z,17.40
2017-11-05T00:13:48.159Z,17.10
2017-11-05T00:16:15.882Z,16.90
2017-11-05T00:18:43.700Z,16.90
2017-11-05T00:21:11.573Z,16.80
2017-11-05T00:23:39.622Z,16.80
2017-11-05T00:26:07.388Z,16.70
2017-11-05T00:28:35.187Z,16.70
2017-11-05T00:31:03.006Z,16.70
2017-11-05T00:33:30.808Z,17.00
2017-11-05T00:35:58.692Z,16.90
2017-11-05T00:38:26.535Z,16.70
2017-11-05T00:40:54.283Z,16.60
2017-11-05T00:43:22.931Z,16.60
2017-11-05T00:45:50.807Z,16.60
2017-11-05T00:48:18.534Z,16.60
2017-11-05T00:50:46.281Z,16.60
2017-11-05T00:53:14.008Z,16.60
2017-11-05T00:55:41.814Z,16.50
2017-11-05T00:58:09.532Z,16.60
2017-11-05T01:00:37.318Z,16.60
2017-11-05T01:03:05.105Z,16.60
2017-11-05T01:05:32.901Z,16.80
2017-11-05T01:08:00.721Z,17.30
2017-11-05T01:10:34.309Z,17.40
2017-11-05T01:13:02.033Z,17.10
2017-11-05T01:15:29.872Z,16.80
2017-11-05T01:17:57.668Z,16.80
2017-11-05T01:20:25.437Z,16.60
2017-11-05T01:22:53.253Z,16.60
2017-11-05T01:25:20.980Z,16.50
2017-11-05T01:27:48.715Z,16.40
2017-11-05T01:30:16.484Z,16.40
2017-11-05T01:32:44.368Z,16.30
2017-11-05T01:35:12.122Z,16.10
2017-11-05T01:37:39.921Z,16.10
2017-11-05T01:40:07.840Z,16.20
2017-11-05T01:42:35.676Z,16.30
2017-11-05T01:45:03.418Z,16.60
2017-11-05T01:47:31.277Z,16.60
2017-11-05T01:49:59.016Z,16.50
2017-11-05T01:52:27.563Z,16.40
2017-11-05T01:54:55.338Z,16.30
2017-11-05T01:57:23.135Z,16.20
2017-11-05T01:59:50.948Z,16.20
2017-11-05T02:02:18.809Z,16.20
2017-11-05T02:04:46.621Z,16.10
2017-11-05T02:07:14.512Z,16.10
2017-11-05T02:09:42.437Z,16.10
2017-11-05T02:12:10.221Z,16.00
2017-11-05T02:14:38.039Z,16.20
2017-11-05T02:17:05.957Z,16.20
2017-11-05T02:19:33.780Z,16.10
2017-11-05T02:22:01.659Z,16.10
2017-11-05T02:24:29.595Z,16.00
2017-11-05T02:26:58.181Z,15.90
2017-11-05T02:29:25.984Z,15.80
2017-11-05T02:31:53.973Z,15.80
2017-11-05T02:34:21.775Z,15.90
2017-11-05T02:36:49.613Z,15.90
2017-11-05T02:39:17.378Z,15.90
2017-11-05T02:41:45.214Z,16.00
2017-11-05T02:44:12.964Z,16.00
2017-11-05T02:46:41.577Z,15.80
2017-11-05T02:49:09.479Z,15.80
2017-11-05T02:51:37.364Z,15.90
2017-11-05T02:54:05.251Z,16.00
2017-11-05T02:56:33.875Z,15.90
2017-11-05T02:59:01.779Z,15.90
2017-11-05T03:01:29.646Z,15.80
2017-11-05T03:03:57.426Z,15.80
2017-11-05T03:06:25.318Z,16.10
2017-11-05T03:08:54.009Z,16.30
2017-11-05T03:11:22.533Z,16.40
2017-11-05T03:13:50.409Z,16.40
2017-11-05T03:16:18.317Z,16.70
2017-11-05T03:18:46.115Z,16.50
2017-11-05T03:21:14.059Z,16.40
2017-11-05T03:23:42.597Z,15.90
2017-11-05T03:26:10.437Z,15.90
2017-11-05T03:28:38.291Z,16.20
2017-11-05T03:31:06.066Z,16.40
2017-11-05T03:33:33.983Z,16.30
2017-11-05T03:36:01.803Z,16.10
2017-11-05T03:38:29.586Z,16.00
2017-11-05T03:40:57.466Z,16.00
2017-11-05T03:43:25.215Z,15.90
2017-11-05T03:45:53.054Z,15.90
2017-11-05T03:48:20.956Z,15.90
2017-11-05T03:50:48.809Z,15.80
2017-11-05T03:53:17.377Z,15.80
2017-11-05T03:55:45.147Z,15.70
2017-11-05T03:58:13.007Z,15.90
2017-11-05T04:00:40.874Z,15.90
2017-11-05T04:03:08.710Z,15.90
2017-11-05T04:05:36.577Z,15.90
2017-11-05T04:08:04.353Z,15.90
2017-11-05T04:10:32.157Z,15.80
2017-11-05T04:13:00.702Z,15.90
2017-11-05T04:15:29.269Z,15.90
2017-11-05T04:17:57.120Z,15.80
2017-11-05T04:20:24.950Z,15.80
2017-11-05T04:22:52.831Z,15.70
2017-11-05T04:25:21.440Z,15.60
2017-11-05T04:27:49.859Z,15.60
2017-11-05T04:30:17.691Z,15.60
2017-11-05T04:32:46.208Z,15.90
2017-11-05T04:35:14.925Z,16.50
2017-11-05T04:37:42.777Z,16.40
2017-11-05T04:40:10.524Z,16.80
2017-11-05T04:42:38.299Z,16.60
2017-11-05T04:45:06.176Z,16.60
2017-11-05T04:47:34.056Z,17.40
2017-11-05T04:50:03.018Z,18.20
2017-11-05T04:52:43.077Z,18.70
2017-11-05T04:55:13.267Z,18.90
2017-11-05T04:57:44.766Z,18.60
2017-11-05T05:00:14.380Z,18.80
2017-11-05T05:03:18.834Z,18.50
2017-11-05T05:05:48.811Z,17.50
2017-11-05T05:08:16.608Z,16.80
2017-11-05T05:10:44.382Z,16.70
2017-11-05T05:13:12.225Z,16.40
2017-11-05T05:15:40.001Z,16.70
2017-11-05T05:18:07.761Z,17.00
2017-11-05T05:20:36.422Z,17.40
2017-11-05T05:23:04.181Z,17.30
2017-11-05T05:25:32.902Z,17.20
2017-11-05T05:28:00.810Z,16.70
2017-11-05T05:30:28.724Z,16.40
2017-11-05T05:32:56.536Z,16.30
2017-11-05T05:35:24.354Z,16.30
2017-11-05T05:37:52.154Z,16.40
2017-11-05T05:40:20.029Z,16.90
2017-11-05T05:42:47.988Z,16.60
2017-11-05T05:45:15.862Z,16.80
2017-11-05T05:47:43.759Z,17.90
2017-11-05T05:50:11.649Z,17.40
2017-11-05T05:52:40.253Z,18.10
2017-11-05T05:55:08.090Z,18.00
2017-11-05T05:57:36.811Z,17.70
2017-11-05T06:00:04.708Z,17.60
2017-11-05T06:02:32.465Z,16.60
2017-11-05T06:05:00.239Z,16.30
2017-11-05T06:07:28.112Z,16.10
2017-11-05T06:09:55.988Z,15.80
2017-11-05T06:12:23.864Z,15.60
2017-11-05T06:14:51.745Z,15.90
2017-11-05T06:17:19.606Z,16.70
2017-11-05T06:19:47.458Z,16.20
2017-11-05T06:22:15.266Z,17.20
2017-11-05T06:24:43.109Z,18.50
2017-11-05T06:27:10.991Z,17.30
2017-11-05T06:29:39.640Z,15.90
2017-11-05T06:32:07.532Z,15.80
2017-11-05T06:34:35.393Z,15.70
2017-11-05T06:37:03.248Z,16.10
2017-11-05T06:39:31.038Z,15.70
2017-11-05T06:41:58.832Z,15.50
2017-11-05T06:44:26.683Z,15.70
2017-11-05T06:46:54.640Z,15.80
2017-11-05T06:49:22.446Z,15.70
2017-11-05T06:51:50.290Z,15.60
2017-11-05T06:54:18.229Z,17.30
2017-11-05T06:56:46.077Z,17.20
2017-11-05T06:59:13.926Z,16.60
2017-11-05T07:01:41.843Z,16.90
2017-11-05T07:04:09.692Z,17.80
2017-11-05T07:06:37.517Z,17.70
2017-11-05T07:09:05.363Z,17.20
2017-11-05T07:11:33.173Z,16.50
2017-11-05T07:14:01.083Z,16.60
2017-11-05T07:16:28.905Z,16.90
2017-11-05T07:18:56.786Z,16.70
2017-11-05T07:21:24.556Z,16.30
2017-11-05T07:23:52.438Z,16.20
2017-11-05T07:26:20.304Z,16.90
2017-11-05T07:28:48.390Z,18.30
2017-11-05T07:31:16.123Z,18.70
2017-11-05T07:33:44.082Z,19.60
2017-11-05T07:36:11.835Z,20.10
2017-11-05T07:38:39.648Z,20.40
2017-11-05T07:41:07.507Z,19.70
2017-11-05T07:43:35.287Z,19.10
2017-11-05T07:46:03.108Z,19.50
2017-11-05T07:48:30.919Z,20.00
2017-11-05T07:50:58.739Z,20.50
2017-11-05T07:53:26.550Z,20.90
2017-11-05T07:55:54.481Z,21.10
2017-11-05T07:58:22.268Z,21.20
2017-11-05T08:00:50.877Z,18.90
2017-11-05T08:03:18.749Z,18.90
2017-11-05T08:05:46.563Z,19.60
2017-11-05T08:08:14.457Z,19.50
2017-11-05T08:10:42.271Z,20.50
2017-11-05T08:13:10.113Z,21.00
2017-11-05T08:15:37.987Z,21.30
2017-11-05T08:18:05.826Z,21.30
2017-11-05T08:20:33.651Z,20.50
2017-11-05T08:23:01.524Z,20.80
2017-11-05T08:25:29.273Z,21.20
2017-11-05T08:27:57.042Z,21.30
2017-11-05T08:30:24.830Z,21.30
2017-11-05T08:32:52.703Z,21.10
2017-11-05T08:35:20.532Z,20.90
2017-11-05T08:37:48.495Z,21.20
2017-11-05T08:40:16.381Z,21.30
2017-11-05T08:42:44.135Z,21.40
2017-11-05T08:45:12.014Z,21.40
2017-11-05T08:47:39.844Z,21.40
2017-11-05T08:50:07.704Z,20.70
2017-11-05T08:52:35.508Z,20.70
2017-11-05T08:55:03.269Z,21.10
2017-11-05T08:57:31.021Z,21.10
2017-11-05T08:59:58.761Z,21.00
2017-11-05T09:02:26.685Z,21.10
2017-11-05T09:04:54.449Z,21.20
2017-11-05T09:07:22.284Z,21.10
2017-11-05T09:09:50.083Z,21.10
2017-11-05T09:12:17.835Z,21.10
2017-11-05T09:14:45.572Z,21.20
2017-11-05T09:17:13.314Z,21.20
2017-11-05T09:19:41.192Z,21.20
2017-11-05T09:22:08.990Z,21.20
2017-11-05T09:24:36.787Z,20.90
2017-11-05T09:27:04.570Z,20.70
2017-11-05T09:29:32.341Z,20.40
2017-11-05T09:32:00.154Z,20.40
2017-11-05T09:34:27.975Z,20.60
2017-11-05T09:36:55.731Z,20.80
2017-11-05T09:39:23.514Z,20.90
2017-11-05T09:41:51.312Z,20.60
2017-11-05T09:44:19.222Z,20.80
2017-11-05T09:46:47.099Z,20.90
2017-11-05T09:49:14.914Z,20.90
2017-11-05T09:51:42.643Z,20.60
2017-11-05T09:54:10.491Z,20.60
2017-11-05T09:56:39.073Z,20.40
2017-11-05T09:59:06.986Z,20.90
2017-11-05T10:01:34.746Z,20.70
2017-11-05T10:04:02.558Z,20.70
2017-11-05T10:06:30.382Z,20.50
2017-11-05T10:08:58.191Z,20.20
2017-11-05T10:11:26.765Z,19.30
2017-11-05T10:13:54.669Z,19.30
2017-11-05T10:16:22.461Z,18.90
2017-11-05T10:18:50.273Z,18.40
2017-11-05T10:21:18.058Z,18.50
2017-11-05T10:23:45.895Z,18.50
2017-11-05T10:26:13.701Z,18.30
2017-11-05T10:28:41.546Z,17.70
2017-11-05T10:31:09.285Z,17.50
2017-11-05T10:33:37.084Z,17.70
2017-11-05T10:36:04.963Z,17.80
2017-11-05T10:38:32.703Z,17.90
2017-11-05T10:41:01.343Z,17.90
2017-11-05T10:43:29.173Z,17.50
2017-11-05T10:45:56.921Z,17.40
2017-11-05T10:48:24.729Z,17.40
2017-11-05T10:50:52.531Z,17.40
2017-11-05T10:53:20.259Z,17.50
2017-11-05T10:55:48.034Z,17.40
2017-11-05T10:58:15.896Z,17.40
2017-11-05T11:00:43.701Z,17.60
2017-11-05T11:03:11.447Z,17.50
2017-11-05T11:05:39.194Z,17.30
2017-11-05T11:08:06.920Z,17.20
2017-11-05T11:10:34.727Z,17.10
2017-11-05T11:13:02.602Z,17.00
2017-11-05T11:15:31.118Z,17.40
2017-11-05T11:17:58.944Z,17.30
2017-11-05T11:20:26.693Z,17.50
2017-11-05T11:22:54.529Z,17.50
2017-11-05T11:25:22.339Z,17.50
2017-11-05T11:27:50.926Z,17.10
2017-11-05T11:30:18.674Z,17.00
2017-11-05T11:32:46.486Z,17.00
2017-11-05T11:35:14.356Z,16.90
2017-11-05T11:37:42.099Z,18.60
2017-11-05T11:40:10.676Z,20.40
2017-11-05T11:42:38.568Z,20.40
2017-11-05T11:45:07.197Z,19.70
2017-11-05T11:47:34.999Z,19.60
2017-11-05T11:50:02.765Z,20.30
2017-11-05T11:52:30.504Z,20.10
2017-11-05T11:54:58.273Z,19.10
2017-11-05T11:57:26.104Z,18.40
2017-11-05T11:59:53.882Z,17.90
2017-11-05T12:02:21.696Z,17.60
2017-11-05T12:04:49.434Z,17.50
2017-11-05T12:07:17.265Z,17.50
2017-11-05T12:09:45.027Z,17.50
2017-11-05T12:12:12.794Z,17.60
2017-11-05T12:14:40.607Z,17.60
2017-11-05T12:17:08.344Z,17.20
2017-11-05T12:19:36.263Z,17.00
2017-11-05T12:22:03.984Z,17.20
2017-11-05T12:24:31.734Z,17.10
2017-11-05T12:26:59.643Z,17.40
2017-11-05T12:29:27.474Z,17.30
2017-11-05T12:31:55.254Z,17.30
2017-11-05T12:34:23.045Z,17.10
2017-11-05T12:36:50.778Z,17.00
2017-11-05T12:39:18.635Z,17.00
2017-11-05T12:41:46.356Z,16.80
2017-11-05T12:44:14.260Z,16.70
2017-11-05T12:46:42.822Z,17.20
2017-11-05T12:49:10.544Z,17.20
2017-11-05T12:51:39.455Z,17.20
2017-11-05T12:54:07.970Z,17.20
2017-11-05T12:56:37.305Z,17.10
2017-11-05T12:59:05.123Z,17.30
2017-11-05T13:01:32.904Z,17.20
2017-11-05T13:04:00.676Z,17.20
2017-11-05T13:06:28.526Z,17.30
2017-11-05T13:08:56.282Z,17.20
2017-11-05T13:11:24.847Z,17.40
2017-11-05T13:13:52.585Z,17.40
2017-11-05T13:16:20.328Z,17.70
2017-11-05T13:18:48.078Z,18.50
2017-11-05T13:21:15.817Z,19.10
2017-11-05T13:23:43.627Z,18.60
2017-11-05T13:26:11.404Z,19.00
2017-11-05T13:28:39.174Z,18.80
2017-11-05T13:31:06.986Z,19.00
2017-11-05T13:33:34.766Z,20.00
2017-11-05T13:36:02.614Z,19.50
2017-11-05T13:38:30.359Z,19.80
2017-11-05T13:40:58.905Z,20.00
2017-11-05T13:43:26.782Z,19.90
2017-11-05T13:45:54.570Z,19.40
2017-11-05T13:48:23.150Z,18.30
2017-11-05T13:50:51.050Z,18.30
2017-11-05T13:53:18.848Z,17.90
2017-11-05T13:55:46.665Z,18.80
2017-11-05T13:58:14.484Z,18.70
2017-11-05T14:00:42.412Z,18.90
2017-11-05T14:03:10.926Z,18.30
2017-11-05T14:05:38.814Z,18.20
2017-11-05T14:08:06.664Z,19.00
2017-11-05T14:10:34.507Z,19.60
2017-11-05T14:13:02.272Z,19.20
2017-11-05T14:15:30.085Z,19.10
2017-11-05T14:17:58.431Z,18.70
2017-11-05T14:20:26.245Z,18.30
2017-11-05T14:22:54.081Z,18.20
2017-11-05T14:25:21.876Z,18.00
2017-11-05T14:27:49.687Z,17.90
2017-11-05T14:30:18.299Z,17.90
2017-11-05T14:32:46.110Z,17.90
2017-11-05T14:35:13.985Z,18.10
2017-11-05T14:37:41.803Z,18.00
2017-11-05T14:40:09.598Z,18.10
2017-11-05T14:42:37.376Z,18.10
2017-11-05T14:45:05.197Z,18.50
2017-11-05T14:47:33.015Z,18.70
2017-11-05T14:50:00.890Z,19.20
2017-11-05T14:52:28.715Z,19.00
2017-11-05T14:54:56.545Z,18.60
2017-11-05T14:57:24.319Z,18.40
2017-11-05T14:59:52.151Z,17.90
2017-11-05T15:02:19.941Z,17.80
2017-11-05T15:04:48.462Z,18.10
2017-11-05T15:07:16.292Z,18.00
2017-11-05T15:09:44.083Z,18.00
2017-11-05T15:12:12.573Z,17.80
2017-11-05T15:14:40.324Z,17.70
2017-11-05T15:17:08.958Z,17.70
2017-11-05T15:19:36.870Z,17.70
2017-11-05T15:22:04.616Z,17.70
2017-11-05T15:24:32.411Z,17.90
2017-11-05T15:27:01.618Z,18.50
2017-11-05T15:29:30.199Z,18.60
2017-11-05T15:31:58.039Z,18.60
2017-11-05T15:34:25.919Z,18.30
2017-11-05T15:36:53.792Z,18.40
2017-11-05T15:39:21.741Z,18.40
2017-11-05T15:41:49.507Z,18.20
2017-11-05T15:44:19.135Z,18.00
2017-11-05T15:46:47.031Z,18.30
2017-11-05T15:49:14.895Z,18.50
2017-11-05T15:51:43.446Z,18.90
2017-11-05T15:54:11.265Z,18.80
2017-11-05T15:56:39.119Z,19.10
2017-11-05T15:59:07.655Z,19.60
2017-11-05T16:01:35.459Z,19.60
2017-11-05T16:04:03.223Z,19.40
2017-11-05T16:06:30.959Z,19.40
2017-11-05T16:08:58.746Z,19.60
2017-11-05T16:11:26.480Z,19.20
2017-11-05T16:13:54.284Z,18.70
2017-11-05T16:16:22.139Z,18.30
2017-11-05T16:18:49.951Z,18.30
2017-11-05T16:21:17.743Z,18.30
2017-11-05T16:23:45.622Z,18.20
2017-11-05T16:26:13.460Z,19.70
2017-11-05T16:28:41.263Z,20.60
2017-11-05T16:31:09.079Z,20.70
2017-11-05T16:33:38.728Z,21.30
2017-11-05T16:36:06.558Z,21.30
2017-11-05T16:38:34.311Z,21.50
2017-11-05T16:41:02.085Z,21.40
2017-11-05T16:43:30.646Z,21.60
2017-11-05T16:45:58.393Z,21.50
2017-11-05T16:48:26.204Z,21.60
2017-11-05T16:50:54.759Z,21.50
2017-11-05T16:53:22.481Z,21.50
2017-11-05T16:55:50.241Z,21.60
2017-11-05T16:58:17.970Z,21.60
2017-11-05T17:00:45.784Z,21.20
2017-11-05T17:03:13.600Z,20.80
2017-11-05T17:05:41.468Z,20.80
2017-11-05T17:08:09.213Z,20.80
2017-11-05T17:10:36.984Z,21.10
2017-11-05T17:13:04.779Z,21.20
2017-11-05T17:15:32.568Z,20.60
2017-11-05T17:18:01.135Z,19.50
2017-11-05T17:20:28.936Z,19.50
2017-11-05T17:22:56.739Z,18.80
2017-11-05T17:25:24.544Z,19.30
2017-11-05T17:27:53.204Z,19.80
2017-11-05T17:30:21.065Z,19.70
2017-11-05T17:32:48.810Z,19.60
2017-11-05T17:35:16.617Z,19.60
2017-11-05T17:37:44.355Z,20.60
2017-11-05T17:40:12.117Z,20.80
2017-11-05T17:42:39.903Z,21.00
2017-11-05T17:45:07.733Z,21.20
2017-11-05T17:47:35.460Z,20.70
2017-11-05T17:50:03.403Z,20.50
2017-11-05T17:52:31.213Z,19.70
2017-11-05T17:54:59.768Z,18.70
2017-11-05T17:57:27.624Z,18.60
2017-11-05T17:59:55.477Z,18.20
2017-11-05T18:02:24.107Z,17.90
2017-11-05T18:04:51.937Z,18.20
2017-11-05T18:07:19.768Z,18.40
2017-11-05T18:09:48.429Z,19.60
2017-11-05T18:12:16.224Z,19.50
2017-11-05T18:14:44.758Z,20.30
2017-11-05T18:17:12.645Z,20.30
2017-11-05T18:19:40.464Z,19.60
2017-11-05T18:22:08.271Z,19.20
2017-11-05T18:24:36.128Z,18.90
2017-11-05T18:27:03.942Z,19.20
2017-11-05T18:29:32.463Z,19.10
2017-11-05T18:32:00.360Z,19.10
2017-11-05T18:34:28.458Z,18.70
2017-11-05T18:36:56.260Z,18.60
2017-11-05T18:39:24.068Z,18.60
2017-11-05T18:41:51.908Z,18.80
2017-11-05T18:44:19.736Z,19.30
2017-11-05T18:46:47.577Z,19.10
2017-11-05T18:49:15.399Z,20.00
2017-11-05T18:51:44.077Z,20.80
2017-11-05T18:54:11.922Z,20.80
2017-11-05T18:56:39.730Z,20.60
2017-11-05T18:59:07.674Z,20.50
2017-11-05T19:01:36.321Z,18.60
2017-11-05T19:04:04.842Z,18.20
2017-11-05T19:06:32.585Z,18.10
2017-11-05T19:09:00.386Z,17.80
2017-11-05T19:11:28.161Z,17.60
2017-11-05T19:13:56.596Z,17.40
2017-11-05T19:16:24.599Z,17.10
2017-11-05T19:18:52.447Z,17.10
2017-11-05T19:21:20.300Z,18.20
2017-11-05T19:23:48.175Z,19.10
2017-11-05T19:26:15.892Z,19.50
2017-11-05T19:28:43.637Z,20.30
2017-11-05T19:31:12.356Z,20.90
2017-11-05T19:33:40.086Z,20.90
2017-11-05T19:36:07.885Z,20.20
2017-11-05T19:38:35.740Z,19.50
2017-11-05T19:41:03.495Z,19.00
2017-11-05T19:43:31.359Z,18.00
2017-11-05T19:45:59.158Z,17.70
2017-11-05T19:48:26.916Z,17.90
2017-11-05T19:50:54.667Z,17.90
2017-11-05T19:53:22.477Z,17.90
2017-11-05T19:55:50.220Z,18.10
2017-11-05T19:58:17.941Z,17.70
2017-11-05T20:00:45.657Z,17.40
2017-11-05T20:03:13.878Z,17.70
2017-11-05T20:05:44.728Z,18.00
2017-11-05T20:08:12.737Z,17.90
2017-11-05T20:10:40.908Z,18.10
2017-11-05T20:13:10.030Z,18.10
2017-11-05T20:15:38.400Z,18.20
2017-11-05T20:18:06.732Z,18.30
2017-11-05T20:20:36.087Z,18.30
2017-11-05T20:23:04.209Z,18.70
2017-11-05T20:25:33.210Z,18.50
2017-11-05T20:28:02.740Z,18.60
2017-11-05T20:30:32.650Z,18.80
2017-11-05T20:33:01.914Z,19.10
2017-11-05T20:35:30.033Z,19.50
2017-11-05T20:37:58.383Z,19.80
2017-11-05T20:40:26.985Z,19.90
2017-11-05T20:42:55.154Z,20.30
2017-11-05T20:45:23.086Z,20.60
2017-11-05T20:47:52.077Z,20.20
2017-11-05T20:50:20.205Z,19.20
2017-11-05T20:52:49.882Z,18.60
2017-11-05T20:55:18.456Z,18.50
2017-11-05T20:57:47.799Z,18.30
2017-11-05T21:00:18.479Z,17.90
2017-11-05T21:02:46.452Z,17.90
2017-11-05T21:05:18.452Z,17.80
2017-11-05T21:07:48.299Z,17.60
2017-11-05T21:10:17.655Z,17.40
2017-11-05T21:12:46.554Z,17.30
2017-11-05T21:15:14.776Z,17.30
2017-11-05T21:17:42.595Z,17.30
2017-11-05T21:20:10.476Z,17.10
2017-11-05T21:22:38.221Z,17.20
2017-11-05T21:25:05.977Z,17.10
2017-11-05T21:27:33.778Z,17.20
2017-11-05T21:30:01.500Z,17.20
2017-11-05T21:32:29.271Z,17.10
2017-11-05T21:34:57.016Z,16.80
2017-11-05T21:37:24.752Z,16.90
2017-11-05T21:39:52.533Z,16.90
2017-11-05T21:42:20.382Z,16.90
2017-11-05T21:44:48.212Z,17.00
2017-11-05T21:47:16.029Z,17.00
2017-11-05T21:49:43.757Z,17.00
2017-11-05T21:52:11.531Z,16.90
2017-11-05T21:54:39.370Z,16.90
2017-11-05T21:57:07.133Z,16.70
2017-11-05T21:59:34.929Z,16.70
2017-11-05T22:02:02.688Z,16.70
2017-11-05T22:04:30.502Z,16.60
2017-11-05T22:06:58.255Z,16.60
2017-11-05T22:09:26.016Z,16.50
2017-11-05T22:11:53.855Z,16.40
2017-11-05T22:14:21.650Z,16.40
2017-11-05T22:16:49.437Z,16.50
2017-11-05T22:19:17.330Z,16.60
2017-11-05T22:21:45.141Z,16.60
2017-11-05T22:24:13.705Z,16.40
2017-11-05T22:26:41.496Z,16.30
2017-11-05T22:29:09.278Z,16.40
2017-11-05T22:31:37.086Z,16.30
2017-11-05T22:34:04.824Z,16.50
2017-11-05T22:36:32.621Z,16.20
2017-11-05T22:39:00.410Z,16.30
2017-11-05T22:41:28.224Z,16.30
2017-11-05T22:43:55.974Z,16.10
2017-11-05T22:46:23.827Z,16.10
2017-11-05T22:48:51.641Z,16.30
2017-11-05T22:51:19.442Z,16.30
2017-11-05T22:53:47.244Z,16.30
2017-11-05T22:56:15.139Z,16.20
2017-11-05T22:58:42.855Z,16.40
2017-11-05T23:01:10.660Z,16.10
2017-11-05T23:03:38.483Z,15.80
2017-11-05T23:06:06.265Z,15.90
2017-11-05T23:08:34.028Z,16.00
2017-11-05T23:11:01.816Z,15.90
2017-11-05T23:13:29.608Z,15.90
2017-11-05T23:15:57.403Z,15.90
2017-11-05T23:18:25.958Z,15.90
2017-11-05T23:20:53.714Z,15.90
2017-11-05T23:23:21.456Z,15.50
2017-11-05T23:25:49.274Z,15.80
2017-11-05T23:28:17.067Z,15.90
2017-11-05T23:30:44.880Z,15.80
2017-11-05T23:33:12.645Z,15.40
2017-11-05T23:35:40.447Z,15.60
2017-11-05T23:38:08.976Z,15.60
2017-11-05T23:40:36.766Z,15.50
2017-11-05T23:43:04.518Z,15.50
2017-11-05T23:45:32.329Z,15.80
2017-11-05T23:48:00.118Z,15.60
2017-11-05T23:50:27.865Z,15.50
2017-11-05T23:52:55.646Z,15.40
2017-11-05T23:55:23.539Z,15.30
2017-11-05T23:57:51.327Z,15.20
